Time;durP1;ratioP1;P1;durP2;ratioP2;P2;SDS_P1;SDS_P2;PMS_P1;PMS_P2;Temp;Humidity;BMP_temperature;BMP_pressure;BME280_temperature;BME280_humidity;BME280_pressure;Samples;Min_cycle;Max_cycle;Signal;HPM_P1;HPM_P2
2022/08/20 00:02:13;;;;;;;3.63;3.10;;;24.80;50.00;;;27.59;37.78;101292.06;5069929;28;20725;-64
2022/08/20 00:04:41;;;;;;;3.67;3.30;;;24.80;50.10;;;27.53;37.70;101291.25;5054584;28;20197;-61
2022/08/20 00:07:10;;;;;;;3.90;3.60;;;24.80;50.70;;;27.50;37.55;101306.13;5034608;28;20186;-61
2022/08/20 00:09:38;;;;;;;3.03;2.80;;;24.70;50.40;;;27.47;38.30;101311.28;5034096;28;20202;-61
2022/08/20 00:12:06;;;;;;;3.70;3.40;;;24.70;50.50;;;27.44;38.64;101309.13;5034241;28;20309;-61
2022/08/20 00:14:34;;;;;;;4.13;3.73;;;24.70;50.80;;;27.41;38.43;101309.66;5034851;28;20320;-63
2022/08/20 00:17:03;;;;;;;5.67;5.17;;;24.60;50.80;;;27.39;38.49;101299.13;5034346;28;20214;-62
2022/08/20 00:19:30;;;;;;;11.03;7.87;;;24.60;50.90;;;27.41;38.11;101298.84;5042306;28;20204;-62
2022/08/20 00:21:57;;;;;;;5.73;5.03;;;24.60;50.90;;;27.47;38.21;101301.28;5055488;28;20535;-62
2022/08/20 00:24:26;;;;;;;3.53;3.20;;;24.60;50.90;;;27.55;38.24;101302.63;5055495;28;20194;-62
2022/08/20 00:26:54;;;;;;;3.43;2.97;;;24.70;50.70;;;27.59;37.66;101300.19;5056660;28;20189;-64
2022/08/20 00:29:21;;;;;;;3.30;2.60;;;24.70;50.50;;;27.60;37.71;101301.81;5057147;28;20200;-61
2022/08/20 00:31:49;;;;;;;4.47;2.90;;;24.70;50.50;;;27.60;38.00;101302.59;5070832;28;20241;-61
2022/08/20 00:34:17;;;;;;;3.77;2.80;;;24.70;51.10;;;27.60;37.54;101297.19;5055802;28;20188;-62
2022/08/20 00:36:45;;;;;;;4.17;3.80;;;24.70;50.70;;;27.60;38.94;101289.06;5054717;28;20285;-61
2022/08/20 00:39:13;;;;;;;6.50;5.93;;;24.80;52.30;;;27.58;40.37;101299.38;5055275;28;20220;-61
2022/08/20 00:41:42;;;;;;;9.47;8.57;;;24.80;55.10;;;27.52;43.37;101295.88;5054729;28;20303;-61
2022/08/20 00:44:13;;;;;;;8.30;7.60;;;24.70;58.30;;;27.43;43.61;101286.66;5066076;28;20190;-63
2022/08/20 00:46:44;;;;;;;9.23;8.43;;;24.70;59.40;;;27.34;44.59;101293.69;5054135;28;20190;-61
2022/08/20 00:49:18;;;;;;;10.30;9.33;;;24.60;61.00;;;27.26;46.37;101290.72;5053967;28;20186;-62
2022/08/20 00:51:52;;;;;;;10.60;9.50;;;24.60;62.80;;;27.14;47.05;101298.31;5053395;28;20293;-61
2022/08/20 00:54:28;;;;;;;11.47;9.70;;;24.50;63.50;;;27.05;47.33;101295.34;5053325;28;20193;-61
2022/08/20 00:57:02;;;;;;;10.47;9.37;;;24.40;64.60;;;27.00;47.67;101302.63;5053857;28;20642;-63
2022/08/20 00:59:33;;;;;;;10.30;9.20;;;24.30;65.70;;;26.94;48.52;101303.69;5053400;28;20257;-62
2022/08/20 01:02:02;;;;;;;8.90;8.00;;;24.30;66.80;;;26.89;48.77;101304.50;5052913;28;20216;-62
2022/08/20 01:04:33;;;;;;;9.57;8.67;;;24.20;67.30;;;26.84;49.13;101304.47;5053305;28;20220;-61
2022/08/20 01:07:04;;;;;;;8.17;7.37;;;24.20;68.00;;;26.79;49.87;101310.69;5068509;28;20257;-62
2022/08/20 01:09:34;;;;;;;9.40;8.27;;;24.10;68.30;;;26.74;50.02;101309.84;5052964;28;20208;-61
2022/08/20 01:12:24;;;;;;;9.47;6.93;;;24.00;69.50;;;26.68;50.24;101311.72;5052707;28;20217;-62
2022/08/20 01:14:52;;;;;;;7.83;7.07;;;24.00;69.90;;;26.66;50.51;101313.88;5053470;28;20193;-61
2022/08/20 01:17:25;;;;;;;9.70;8.73;;;23.90;70.20;;;26.62;51.20;101307.41;5053353;28;20190;-62
2022/08/20 01:19:58;;;;;;;8.07;7.13;;;23.90;71.10;;;26.60;51.32;101306.84;5053335;28;20196;-61
2022/08/20 01:25:39;;;;;;;8.60;7.67;;;23.80;71.90;;;26.60;52.43;101304.13;5053402;28;20276;-62
2022/08/20 01:28:08;;;;;;;9.10;8.27;;;23.90;72.40;;;26.60;51.90;101309.53;5053544;28;20200;-61
2022/08/20 01:30:37;;;;;;;13.90;8.73;;;23.80;72.60;;;26.59;52.81;101302.53;5053126;28;20217;-63
2022/08/20 01:33:05;;;;;;;11.57;7.73;;;23.80;73.10;;;26.55;52.19;101300.63;5053666;28;20296;-61
2022/08/20 01:35:37;;;;;;;13.17;9.07;;;23.80;72.90;;;26.50;52.33;101304.13;5053422;28;20216;-62
2022/08/20 01:38:06;;;;;;;8.50;7.63;;;23.70;73.40;;;26.48;52.56;101305.47;5054553;28;20661;-62
2022/08/20 01:41:09;;;;;;;9.37;8.37;;;23.70;73.50;;;26.34;53.36;101310.53;5052806;28;20654;-64
2022/08/20 01:43:37;;;;;;;9.27;8.20;;;23.70;74.90;;;26.39;53.50;101315.13;5054339;28;20502;-62
2022/08/20 01:46:07;;;;;;;9.17;8.30;;;23.60;74.90;;;26.35;53.27;101311.34;5054090;28;20552;-62
2022/08/20 01:48:38;;;;;;;8.57;7.87;;;23.60;74.90;;;26.31;53.72;101308.38;5069643;28;20232;-63
2022/08/20 01:51:12;;;;;;;10.53;7.93;;;23.60;75.50;;;26.25;54.04;101298.63;5053865;28;20305;-62
2022/08/20 01:53:45;;;;;;;9.70;8.67;;;23.60;75.90;;;26.22;54.73;101299.16;5054544;28;20200;-63
2022/08/20 01:56:18;;;;;;;10.70;9.70;;;23.50;76.10;;;26.19;54.84;101302.41;5056950;28;20185;-63
2022/08/20 01:58:51;;;;;;;9.40;8.27;;;23.50;77.20;;;26.17;54.69;101296.47;5059032;28;20185;-63
2022/08/20 02:01:27;;;;;;;10.00;9.00;;;23.40;76.50;;;26.16;55.13;101292.13;5058117;28;20212;-62
2022/08/20 02:03:56;;;;;;;13.43;9.60;;;23.40;76.60;;;26.19;54.68;101300.53;5058996;28;20190;-61
2022/08/20 02:06:26;;;;;;;9.83;8.83;;;23.40;76.50;;;26.22;54.77;101301.84;5060338;28;20201;-62
2022/08/20 02:08:58;;;;;;;9.83;8.57;;;23.40;76.80;;;26.24;54.47;101310.53;5059417;28;20202;-62
2022/08/20 02:11:29;;;;;;;9.07;8.20;;;23.40;76.40;;;26.25;54.34;101311.31;5059603;28;20210;-61
2022/08/20 02:13:57;;;;;;;8.30;7.50;;;23.40;76.00;;;26.23;54.41;101318.88;5057103;28;20696;-61
2022/08/20 02:16:30;;;;;;;9.27;8.47;;;23.40;75.90;;;26.22;54.22;101312.66;5056821;28;20204;-61
2022/08/20 02:19:08;;;;;;;8.10;7.40;;;23.40;76.10;;;26.21;54.93;101316.44;5056784;28;20246;-62
2022/08/20 02:21:46;;;;;;;9.47;8.67;;;23.40;76.30;;;26.20;54.01;101317.50;5056633;28;20206;-62
2022/08/20 02:24:14;;;;;;;9.03;8.00;;;23.40;76.10;;;26.19;55.12;101311.31;5056788;28;20181;-62
2022/08/20 02:26:43;;;;;;;10.23;9.23;;;23.40;76.60;;;26.23;54.98;101313.47;5056725;28;20226;-62
2022/08/20 02:29:13;;;;;;;8.77;7.83;;;23.40;76.80;;;26.24;54.74;101321.31;5057122;28;20216;-62
2022/08/20 02:31:46;;;;;;;8.87;7.97;;;23.40;76.60;;;26.25;55.41;101317.53;5056153;28;20224;-63
2022/08/20 02:34:34;;;;;;;9.60;8.60;;;23.40;77.20;;;26.29;55.69;101318.66;5056457;28;20201;-62
2022/08/20 02:37:03;;;;;;;7.90;7.10;;;23.40;77.30;;;26.32;55.08;101311.88;5072230;28;20216;-62
2022/08/20 02:39:32;;;;;;;10.03;8.63;;;23.50;77.40;;;26.38;55.35;101313.53;5056995;28;20194;-62
2022/08/20 02:42:02;;;;;;;9.57;8.57;;;23.50;77.30;;;26.43;54.69;101308.16;5056128;28;20267;-62
2022/08/20 02:44:31;;;;;;;8.90;7.70;;;23.60;77.10;;;26.47;55.11;101315.47;5056608;28;20194;-63
2022/08/20 02:46:59;;;;;;;9.93;9.03;;;23.60;76.80;;;26.50;54.61;101314.94;5056262;28;20217;-62
2022/08/20 02:49:27;;;;;;;12.20;9.30;;;23.60;76.90;;;26.52;55.24;101322.75;5055976;28;20224;-63
2022/08/20 02:51:54;;;;;;;11.80;8.77;;;23.70;77.20;;;26.55;55.36;101306.84;5055146;28;20222;-60
2022/08/20 02:54:22;;;;;;;9.60;8.40;;;23.70;77.10;;;26.58;54.76;101308.19;5056139;28;20209;-61
2022/08/20 02:56:50;;;;;;;9.03;8.13;;;23.70;77.10;;;26.60;55.35;101304.13;5062266;28;20225;-62
2022/08/20 02:59:19;;;;;;;9.97;7.93;;;23.80;77.00;;;26.63;55.33;101309.00;5072323;28;20208;-62
2022/08/20 03:01:47;;;;;;;10.13;8.40;;;23.80;77.10;;;26.65;55.41;101306.84;5056414;28;20221;-61
2022/08/20 03:04:27;;;;;;;9.97;8.97;;;23.80;77.10;;;26.68;55.18;101306.31;5057060;28;20186;-63
2022/08/20 03:06:54;;;;;;;11.13;10.13;;;23.90;77.30;;;26.70;55.32;101311.44;5055706;28;20201;-63
2022/08/20 03:09:23;;;;;;;12.77;10.60;;;23.90;77.70;;;26.70;54.81;101312.28;5040687;28;20194;-63
2022/08/20 03:11:51;;;;;;;11.87;10.67;;;23.90;77.20;;;26.68;55.69;101311.72;5037165;28;20222;-60
2022/08/20 03:14:20;;;;;;;12.13;9.97;;;23.90;77.30;;;26.64;55.04;101302.53;5037558;28;20248;-63
2022/08/20 03:16:48;;;;;;;10.57;9.57;;;23.90;77.30;;;26.63;55.59;101297.38;5037549;28;20211;-63
2022/08/20 03:19:15;;;;;;;13.53;9.90;;;23.90;78.40;;;26.61;55.57;101299.56;5036556;28;20289;-61
2022/08/20 03:21:43;;;;;;;11.30;10.17;;;23.80;77.80;;;26.62;55.64;101306.59;5036290;28;20244;-61
2022/08/20 03:24:11;;;;;;;12.30;11.00;;;23.90;78.00;;;26.61;55.94;101305.78;5043813;28;20198;-63
2022/08/20 03:26:38;;;;;;;9.37;8.37;;;23.90;77.70;;;26.63;55.23;101292.00;5056434;28;20201;-62
2022/08/20 03:29:06;;;;;;;13.47;11.03;;;23.90;77.60;;;26.66;55.39;101297.69;5056148;28;20205;-61
2022/08/20 03:31:35;;;;;;;13.83;11.90;;;23.90;77.80;;;26.67;55.58;101309.31;5055720;28;20222;-63
2022/08/20 03:34:03;;;;;;;12.87;10.63;;;23.90;78.10;;;26.69;55.68;101307.97;5055824;28;20186;-62
2022/08/20 03:36:30;;;;;;;12.33;11.03;;;23.90;78.10;;;26.70;55.77;101306.88;5055799;28;20188;-61
2022/08/20 03:39:05;;;;;;;12.60;11.40;;;23.90;78.30;;;26.75;56.18;101317.72;5056106;28;20677;-62
2022/08/20 03:41:32;;;;;;;11.37;10.27;;;23.90;78.40;;;26.76;55.54;101313.94;5056862;28;20231;-62
2022/08/20 03:44:00;;;;;;;11.27;9.40;;;23.90;78.40;;;26.76;55.85;101313.94;5072097;28;20198;-62
2022/08/20 03:46:29;;;;;;;9.20;8.23;;;23.90;78.40;;;26.76;55.83;101313.94;5057510;28;20189;-62
2022/08/20 03:48:58;;;;;;;8.20;7.40;;;23.90;78.30;;;26.76;55.90;101322.06;5055431;28;20204;-62
2022/08/20 03:51:28;;;;;;;8.30;7.50;;;23.90;78.20;;;26.76;55.35;101327.47;5054557;28;20304;-61
2022/08/20 03:53:56;;;;;;;8.27;7.47;;;23.90;78.20;;;26.75;55.20;101323.13;5054889;28;20200;-62
2022/08/20 03:56:24;;;;;;;8.63;7.37;;;23.90;78.20;;;26.75;55.26;101327.72;5054768;28;20565;-62
2022/08/20 03:58:52;;;;;;;6.47;5.33;;;23.80;78.20;;;26.69;55.44;101328.75;5054560;28;20204;-63
2022/08/20 04:01:19;;;;;;;6.83;4.40;;;23.80;77.40;;;26.59;55.35;101329.53;5054203;28;20193;-63
2022/08/20 04:04:09;;;;;;;5.30;4.90;;;23.70;77.10;;;26.51;55.01;101331.94;5055795;28;20205;-62
2022/08/20 04:06:39;;;;;;;5.40;5.00;;;23.70;77.40;;;26.44;55.23;101334.88;5054923;28;20202;-62
2022/08/20 04:09:08;;;;;;;5.10;4.70;;;23.60;77.30;;;26.40;55.50;101338.38;5054583;28;20233;-62
2022/08/20 04:11:38;;;;;;;4.70;4.37;;;23.60;78.10;;;26.37;55.77;101344.31;5054284;28;20217;-62
2022/08/20 04:14:05;;;;;;;5.30;4.90;;;23.50;77.60;;;26.36;55.52;101346.22;5054676;28;20280;-62
2022/08/20 04:16:33;;;;;;;5.37;4.97;;;23.50;77.80;;;26.33;55.03;101341.34;5054760;28;20202;-62
2022/08/20 04:19:02;;;;;;;5.43;5.03;;;23.50;77.80;;;26.31;55.11;101337.28;5054004;28;20198;-62
2022/08/20 04:21:32;;;;;;;5.30;4.90;;;23.40;77.60;;;26.30;55.41;101346.44;5054338;28;20206;-62
2022/08/20 04:24:02;;;;;;;4.90;4.50;;;23.40;78.00;;;26.30;55.31;101347.25;5054808;28;20694;-63
2022/08/20 04:26:30;;;;;;;5.47;4.93;;;23.40;78.10;;;26.32;55.34;101350.50;5054192;28;20186;-63
2022/08/20 04:28:57;;;;;;;6.40;5.80;;;23.40;77.90;;;26.32;55.36;101352.38;5053627;28;20198;-62
2022/08/20 04:31:34;;;;;;;8.70;7.90;;;23.40;77.90;;;26.32;55.82;101355.91;5054109;28;20220;-63
2022/08/20 04:34:06;;;;;;;6.53;6.00;;;23.40;77.90;;;26.32;55.32;101352.38;5054365;28;20272;-63
2022/08/20 04:36:35;;;;;;;5.70;5.20;;;23.40;77.70;;;26.30;55.37;101360.75;5054302;28;20178;-62
2022/08/20 04:39:04;;;;;;;5.27;4.87;;;23.40;77.60;;;26.28;55.38;101362.09;5053814;28;20186;-62
2022/08/20 04:41:31;;;;;;;5.67;5.27;;;23.40;77.50;;;26.23;55.61;101357.47;5053443;28;20206;-62
2022/08/20 04:43:59;;;;;;;6.27;5.67;;;23.40;77.50;;;26.18;55.53;101360.97;5040629;28;20193;-62
2022/08/20 04:46:27;;;;;;;5.87;5.37;;;23.40;77.50;;;26.15;54.85;101360.66;5053795;28;20279;-62
2022/08/20 04:48:55;;;;;;;5.80;5.40;;;23.30;77.60;;;26.13;55.60;101362.81;5054059;28;20605;-62
2022/08/20 04:51:24;;;;;;;6.27;5.67;;;23.30;78.00;;;26.15;56.05;101366.06;5053186;28;20200;-62
2022/08/20 04:53:56;;;;;;;6.20;5.67;;;23.30;78.20;;;26.19;55.58;101372.59;5053671;28;20231;-62
2022/08/20 04:56:26;;;;;;;8.53;5.27;;;23.30;78.30;;;26.19;55.37;101372.59;5053660;28;20210;-63
2022/08/20 04:58:57;;;;;;;6.40;5.60;;;23.30;78.30;;;26.22;56.08;101377.44;5053860;28;20543;-63
2022/08/20 05:01:26;;;;;;;5.60;5.20;;;23.30;78.50;;;26.25;55.88;101382.31;5053483;28;20189;-63
2022/08/20 05:03:55;;;;;;;6.90;6.20;;;23.40;78.70;;;26.32;55.71;101388.28;5053817;28;20315;-63
2022/08/20 05:06:27;;;;;;;6.70;6.20;;;23.40;78.60;;;26.34;56.06;101380.75;5053435;28;20194;-63
2022/08/20 05:08:58;;;;;;;6.73;6.10;;;23.40;78.40;;;26.40;55.42;101378.88;5053477;28;20202;-63
2022/08/20 05:11:27;;;;;;;7.17;6.57;;;23.50;78.50;;;26.45;55.41;101381.63;5053263;28;20182;-63
2022/08/20 05:14:01;;;;;;;7.40;6.73;;;23.50;78.50;;;26.49;55.93;101388.91;5053421;28;20228;-62
2022/08/20 05:16:28;;;;;;;6.73;6.03;;;23.60;78.40;;;26.49;55.28;101388.91;5053503;28;20655;-62
2022/08/20 05:18:56;;;;;;;7.30;6.60;;;23.60;78.40;;;26.48;55.12;101390.00;5053158;28;20690;-63
2022/08/20 05:21:23;;;;;;;8.57;7.73;;;23.60;78.30;;;26.47;56.05;101393.78;5052719;28;20726;-62
2022/08/20 05:23:50;;;;;;;8.37;7.67;;;23.60;78.70;;;26.46;56.10;101392.16;5053339;28;20200;-62
2022/08/20 05:26:19;;;;;;;9.03;8.13;;;23.60;78.70;;;26.46;55.59;101394.84;5053269;28;20196;-63
2022/08/20 05:28:47;;;;;;;9.23;8.27;;;23.50;78.60;;;26.43;56.17;101392.69;5053335;28;20574;-62
2022/08/20 05:31:26;;;;;;;8.83;7.93;;;23.50;78.60;;;26.40;55.64;101393.22;5051306;28;20273;-62
2022/08/20 05:34:00;;;;;;;9.27;8.40;;;23.50;79.00;;;26.41;55.66;101394.03;5052119;28;20277;-62
2022/08/20 05:36:28;;;;;;;9.73;8.73;;;23.50;79.20;;;26.38;55.90;101387.25;5052688;28;20239;-62
2022/08/20 05:38:56;;;;;;;7.50;6.63;;;23.50;79.20;;;26.39;56.33;101393.44;5052888;28;20201;-62
2022/08/20 05:41:27;;;;;;;7.40;6.77;;;23.50;79.40;;;26.44;56.03;101388.06;5052499;28;20553;-63
2022/08/20 05:44:00;;;;;;;10.23;9.17;;;23.50;79.60;;;26.46;56.22;101389.44;5058469;28;20186;-62
2022/08/20 05:46:29;;;;;;;8.60;7.90;;;23.50;79.50;;;26.47;56.18;101388.38;5052851;28;20193;-61
2022/08/20 05:48:58;;;;;;;10.90;9.90;;;23.50;79.60;;;26.50;56.11;101385.16;5053027;28;20201;-62
2022/08/20 05:51:27;;;;;;;11.03;9.97;;;23.50;79.70;;;26.52;56.45;101393.81;5052216;28;20225;-62
2022/08/20 05:53:55;;;;;;;10.27;9.37;;;23.60;79.80;;;26.54;55.90;101396.22;5053336;28;20499;-62
2022/08/20 05:56:29;;;;;;;9.87;8.87;;;23.60;79.80;;;26.56;56.37;101392.19;5052680;28;20654;-62
2022/08/20 05:59:01;;;;;;;9.67;8.77;;;23.60;79.80;;;26.60;55.90;101395.19;5068267;28;20186;-62
2022/08/20 06:01:30;;;;;;;10.13;9.13;;;23.60;79.80;;;26.63;55.93;101394.66;5052542;28;20218;-62
2022/08/20 06:06:45;;;;;;;12.63;11.37;;;23.70;79.80;;;26.73;56.14;101403.59;5052907;28;20186;-62
2022/08/20 06:09:16;;;;;;;10.00;9.10;;;23.70;79.70;;;26.79;55.72;101399.88;5052684;28;20194;-61
2022/08/20 06:12:02;;;;;;;11.97;10.77;;;23.80;79.80;;;26.89;56.03;101404.50;5052651;28;20241;-65
2022/08/20 06:14:31;;;;;;;13.70;12.50;;;23.80;79.60;;;26.97;55.84;101405.88;5053055;28;20654;-63
2022/08/20 06:17:07;;;;;;;13.40;12.03;;;23.90;79.50;;;26.93;55.71;101393.97;5052768;28;20178;-62
2022/08/20 06:19:37;;;;;;;13.63;12.37;;;23.90;79.20;;;26.91;55.06;101396.91;5043716;28;20195;-62
2022/08/20 06:22:06;;;;;;;14.60;12.80;;;23.90;79.00;;;26.90;55.02;101397.19;5032344;28;20202;-61
2022/08/20 06:24:46;;;;;;;11.67;10.57;;;23.90;78.90;;;26.84;55.52;101402.59;5032823;28;20647;-62
2022/08/20 06:27:16;;;;;;;14.77;13.27;;;23.90;79.00;;;26.84;55.40;101397.19;5032306;28;20295;-62
2022/08/20 06:29:43;;;;;;;14.33;12.93;;;23.90;79.00;;;26.83;55.85;101398.28;5032721;28;20285;-62
2022/08/20 06:32:11;;;;;;;14.73;13.17;;;23.90;79.00;;;26.84;55.38;101397.19;5032123;28;20253;-61
2022/08/20 06:34:38;;;;;;;13.20;11.83;;;23.80;79.00;;;26.85;55.67;101398.00;5032349;28;20195;-62
2022/08/20 06:37:23;;;;;;;12.43;11.30;;;23.90;79.30;;;26.86;55.57;101400.44;5032709;28;20198;-62
2022/08/20 06:40:02;;;;;;;14.17;10.77;;;23.90;79.40;;;26.92;55.16;101397.75;5056793;28;20268;-64
2022/08/20 06:42:31;;;;;;;11.23;10.03;;;23.90;79.10;;;26.94;55.02;101401.81;5074167;28;20212;-63
2022/08/20 06:44:59;;;;;;;8.57;7.70;;;23.90;78.70;;;26.96;55.29;101404.25;5060974;28;20198;-64
2022/08/20 06:47:26;;;;;;;11.70;10.60;;;23.90;78.60;;;26.96;54.75;101405.03;5055847;28;20198;-62
2022/08/20 06:49:54;;;;;;;11.27;10.27;;;24.00;78.50;;;26.95;54.62;101406.13;5055852;28;20197;-63
2022/08/20 06:52:21;;;;;;;10.57;9.00;;;24.00;78.20;;;26.94;54.93;101400.97;5055424;28;20209;-64
2022/08/20 06:55:11;;;;;;;9.73;8.93;;;24.00;78.10;;;26.91;54.71;101404.25;5056295;28;20190;-62
2022/08/20 06:57:40;;;;;;;10.73;8.93;;;24.00;77.90;;;26.89;55.21;101399.09;5055465;28;20194;-62
2022/08/20 07:00:13;;;;;;;10.20;8.87;;;24.00;77.90;;;26.94;54.64;101406.38;5055307;28;20190;-62
2022/08/20 07:02:40;;;;;;;9.00;7.07;;;24.00;77.80;;;26.98;54.85;101405.59;5054002;28;20218;-62
2022/08/20 07:05:09;;;;;;;8.50;7.70;;;24.00;77.20;;;27.04;54.01;101403.72;5055544;28;20198;-62
2022/08/20 07:07:37;;;;;;;8.53;7.20;;;24.00;77.00;;;27.10;53.76;101402.66;5055120;28;20205;-61
2022/08/20 07:10:10;;;;;;;7.27;6.60;;;24.10;76.80;;;27.17;53.77;101400.50;5054229;28;20190;-63
2022/08/20 07:12:39;;;;;;;6.87;6.17;;;24.10;76.10;;;27.24;53.56;101398.34;5055305;28;20694;-63
2022/08/20 07:15:10;;;;;;;7.73;6.60;;;24.20;76.00;;;27.35;52.90;101403.50;5055285;28;20686;-63
2022/08/20 07:17:38;;;;;;;8.40;7.63;;;24.30;76.00;;;27.47;52.70;101409.50;5055471;28;20188;-63
2022/08/20 07:20:10;;;;;;;9.50;8.40;;;24.30;75.30;;;27.52;52.21;101406.78;5055128;28;20192;-63
2022/08/20 07:22:37;;;;;;;7.50;6.83;;;24.40;75.90;;;27.59;52.30;101413.81;5054665;28;20217;-64
2022/08/20 07:25:10;;;;;;;7.60;6.90;;;24.40;75.00;;;27.63;52.12;101415.72;5055123;28;20201;-62
2022/08/20 07:27:39;;;;;;;9.60;6.63;;;24.50;74.80;;;27.66;51.89;101419.75;5055066;28;20182;-60
2022/08/20 07:33:18;;;;;;;6.63;6.03;;;24.60;74.40;;;27.72;51.69;101424.91;5055009;28;20240;-62
2022/08/20 07:35:47;;;;;;;7.50;5.90;;;24.70;73.80;;;27.72;51.47;101424.91;5054815;28;20592;-59
2022/08/20 07:38:24;;;;;;;7.40;6.57;;;24.70;73.40;;;27.74;51.17;101420.03;5054469;28;20205;-61
2022/08/20 07:40:55;;;;;;;10.03;6.40;;;24.70;73.10;;;27.76;51.01;101431.41;5054622;28;20257;-63
2022/08/20 07:43:25;;;;;;;7.40;6.47;;;24.70;72.90;;;27.79;50.75;101430.84;5054672;28;20239;-61
2022/08/20 07:45:56;;;;;;;6.30;5.70;;;24.70;72.80;;;27.81;50.72;101433.31;5070826;28;20205;-63
2022/08/20 07:48:27;;;;;;;6.93;6.03;;;24.70;72.50;;;27.82;50.93;101433.03;5071412;28;20204;-63
2022/08/20 07:51:04;;;;;;;7.27;6.27;;;24.70;72.30;;;27.84;50.46;101438.97;5054736;28;20240;-60
2022/08/20 07:53:35;;;;;;;6.03;5.47;;;24.80;72.10;;;27.86;50.11;101430.59;5054420;28;20210;-63
2022/08/20 07:56:06;;;;;;;7.00;4.70;;;24.80;71.50;;;27.93;49.81;101431.13;5055243;28;20181;-62
2022/08/20 07:58:38;;;;;;;5.50;4.73;;;24.80;71.20;;;28.06;49.75;101430.59;5057672;28;20276;-62
2022/08/20 08:01:06;;;;;;;6.00;4.70;;;24.90;71.40;;;28.21;49.54;101438.69;5054166;28;20534;-62
2022/08/20 08:03:34;;;;;;;5.93;5.10;;;24.90;71.30;;;28.34;49.41;101445.41;5054487;28;20201;-62
2022/08/20 08:06:19;;;;;;;5.00;4.13;;;25.00;70.70;;;28.40;48.97;101452.44;5054433;28;20297;-62
2022/08/20 08:09:03;;;;;;;6.03;4.53;;;25.10;70.40;;;28.45;48.63;101455.16;5055253;28;20198;-63
2022/08/20 08:11:37;;;;;;;6.67;4.97;;;25.20;70.30;;;28.51;48.71;101460.28;5054622;28;20225;-62
2022/08/20 08:14:08;;;;;;;6.67;5.20;;;25.30;70.00;;;28.55;48.36;101455.13;5053263;28;20205;-63
2022/08/20 08:16:37;;;;;;;5.70;4.87;;;25.30;69.60;;;28.58;48.51;101459.97;5054547;28;20189;-61
2022/08/20 08:19:10;;;;;;;7.03;5.07;;;25.40;69.30;;;28.51;48.30;101465.69;5053943;28;20194;-61
2022/08/20 08:21:38;;;;;;;7.83;4.77;;;25.40;68.70;;;28.44;47.97;101464.34;5054390;28;20705;-62
2022/08/20 08:24:06;;;;;;;4.60;4.00;;;25.30;68.20;;;28.37;47.89;101469.25;5054282;28;20186;-61
2022/08/20 08:26:33;;;;;;;6.57;3.93;;;25.30;68.10;;;28.31;48.25;101476.59;5054053;28;20224;-62
2022/08/20 08:29:01;;;;;;;5.50;3.77;;;25.30;68.10;;;28.31;48.25;101481.19;5053590;28;20216;-62
2022/08/20 08:31:30;;;;;;;4.27;3.80;;;25.20;67.90;;;28.33;47.59;101487.16;5054435;28;20304;-61
2022/08/20 08:33:57;;;;;;;6.20;3.83;;;25.20;67.60;;;28.43;47.25;101482.50;5053807;28;20226;-62
2022/08/20 08:36:26;;;;;;;5.07;3.90;;;25.20;67.30;;;28.68;46.89;101481.66;5054124;28;20296;-62
2022/08/20 08:38:55;;;;;;;5.20;3.50;;;25.30;67.20;;;29.03;45.91;101478.78;5053740;28;20742;-61
2022/08/20 08:41:30;;;;;;;5.87;3.70;;;25.40;66.20;;;29.37;45.11;101479.72;5053167;28;20198;-62
2022/08/20 08:44:11;;;;;;;4.90;3.17;;;25.60;65.90;;;29.56;44.38;101487.19;5039960;28;20265;-64
2022/08/20 08:46:48;;;;;;;5.70;3.47;;;25.80;64.60;;;29.75;43.89;101479.97;5053116;28;20197;-63
2022/08/20 08:49:21;;;;;;;5.63;3.50;;;26.00;64.30;;;29.87;43.42;101485.88;5053722;28;20190;-62
2022/08/20 08:51:55;;;;;;;6.20;3.83;;;26.10;63.80;;;29.93;43.93;101482.06;5053289;28;20217;-63
2022/08/20 08:54:30;;;;;;;5.50;3.60;;;26.30;63.70;;;30.07;43.07;101483.00;5053514;28;20635;-63
2022/08/20 08:56:59;;;;;;;5.53;4.00;;;26.30;63.40;;;30.28;42.46;101479.00;5053376;28;20670;-63
2022/08/20 08:59:30;;;;;;;7.80;3.43;;;26.50;62.70;;;30.45;42.51;101482.06;5053177;28;20190;-63
2022/08/20 09:02:24;;;;;;;7.83;3.53;;;26.60;62.80;;;30.75;41.40;101487.19;5052763;28;20218;-63
2022/08/20 09:04:56;;;;;;;7.73;4.67;;;26.70;61.70;;;31.20;41.03;101490.44;5053223;28;20268;-63
2022/08/20 09:07:30;;;;;;;8.10;5.20;;;26.90;61.20;;;31.33;40.20;101500.59;5053411;28;20190;-62
2022/08/20 09:09:58;;;;;;;8.47;4.43;;;27.10;60.40;;;31.39;40.04;101499.41;5053161;28;20208;-62
2022/08/20 09:12:26;;;;;;;5.57;3.10;;;27.30;60.20;;;31.53;39.55;101499.50;5052737;28;20205;-62
2022/08/20 09:14:54;;;;;;;19.97;16.67;;;27.40;59.10;;;31.63;39.77;101502.88;5053258;28;20210;-62
2022/08/20 09:17:23;;;;;;;9.03;6.37;;;27.50;59.00;;;31.53;38.68;101499.50;5052225;28;20196;-64
2022/08/20 09:19:51;;;;;;;10.30;3.53;;;27.50;57.60;;;31.28;38.68;101508.84;5052347;28;20610;-62
2022/08/20 09:22:22;;;;;;;6.07;3.07;;;27.50;57.10;;;31.22;39.45;101504.53;5052533;28;20705;-63
2022/08/20 09:24:49;;;;;;;8.70;3.77;;;27.40;57.10;;;31.67;38.22;101503.91;5052832;28;20190;-62
2022/08/20 09:27:17;;;;;;;9.87;3.33;;;27.50;56.90;;;32.28;36.92;101503.72;5052602;28;20190;-64
2022/08/20 09:29:45;;;;;;;6.93;3.40;;;27.60;55.90;;;33.31;35.47;101502.97;5052713;28;20260;-64
2022/08/20 09:32:19;;;;;;;9.30;3.23;;;28.00;55.30;;;34.69;33.39;101510.19;5052871;28;20221;-64
2022/08/20 09:34:55;;;;;;;5.70;3.47;;;28.60;54.60;;;35.93;30.79;101506.59;5052860;28;20226;-64
2022/08/20 09:37:25;;;;;;;5.47;3.40;;;29.20;52.10;;;36.88;28.75;101511.75;5052942;28;20244;-62
2022/08/20 09:39:53;;;;;;;6.80;3.45;;;29.90;49.60;;;37.70;27.86;101508.25;5052886;28;20647;-64
2022/08/20 09:42:24;;;;;;;6.50;3.15;;;30.60;48.20;;;38.17;27.54;101511.50;5067685;28;20565;-62
2022/08/20 09:44:51;;;;;;;5.72;4.25;;;31.20;47.20;;;38.53;26.16;101509.63;5053136;28;20197;-64
2022/08/20 09:47:19;;;;;;;8.98;3.45;;;31.70;44.20;;;38.62;26.11;101506.75;5052276;28;20194;-62
2022/08/20 09:49:48;;;;;;;9.30;3.83;;;32.00;42.70;;;39.02;25.10;101506.84;5052432;28;20194;-64
2022/08/20 09:52:23;;;;;;;4.82;3.33;;;32.40;40.90;;;39.34;23.98;101500.34;5052470;28;20217;-63
2022/08/20 09:54:54;;;;;;;7.10;3.38;;;32.70;39.40;;;39.17;24.60;101506.16;5052630;28;20240;-64
2022/08/20 09:57:22;;;;;;;5.65;3.60;;;33.00;39.30;;;39.08;24.41;101497.97;5052316;28;20208;-64
2022/08/20 09:59:57;;;;;;;6.85;3.30;;;33.10;39.50;;;38.80;24.85;101510.88;5051959;28;20190;-62
2022/08/20 10:02:25;;;;;;;4.38;3.17;;;33.20;38.90;;;39.01;25.25;101513.50;5052295;28;20288;-63
2022/08/20 10:04:54;;;;;;;7.03;2.83;;;33.30;39.60;;;39.42;25.09;101513.16;5052509;28;20197;-62
2022/08/20 10:07:23;;;;;;;4.85;3.17;;;33.40;39.00;;;39.72;24.23;101508.97;5052172;28;20197;-63
2022/08/20 10:09:51;;;;;;;4.32;2.45;;;33.60;38.20;;;39.72;24.34;101516.44;5051521;28;20273;-63
2022/08/20 10:12:18;;;;;;;9.50;3.67;;;33.80;37.50;;;39.39;23.65;101513.91;5051926;28;20288;-63
2022/08/20 10:14:46;;;;;;;6.07;3.00;;;33.90;36.40;;;39.06;24.14;101510.50;5052246;28;20304;-64
2022/08/20 10:17:13;;;;;;;5.50;3.08;;;33.80;36.20;;;39.53;23.58;101517.06;5053714;28;20204;-64
2022/08/20 10:19:40;;;;;;;5.05;2.80;;;33.90;36.00;;;39.59;22.92;101512.91;5055511;28;20264;-63
2022/08/20 10:22:09;;;;;;;5.18;2.83;;;34.00;35.60;;;38.94;23.30;101502.28;5055265;28;20213;-63
2022/08/20 10:24:37;;;;;;;6.70;2.97;;;33.80;34.40;;;38.16;24.06;101510.69;5053941;28;20209;-63
2022/08/20 10:27:05;;;;;;;5.68;2.97;;;33.60;34.90;;;37.46;24.56;101513.66;5055615;28;20524;-63
2022/08/20 10:29:32;;;;;;;6.55;3.00;;;33.30;34.90;;;36.77;25.38;101508.59;5055128;28;20212;-64
2022/08/20 10:32:10;;;;;;;7.97;3.47;;;32.90;35.00;;;36.12;25.28;101516.41;5056069;28;20206;-62
2022/08/20 10:34:39;;;;;;;5.93;3.90;;;32.50;35.00;;;35.56;26.18;101510.06;5056299;28;20221;-61